Time;durP1;ratioP1;P1;durP2;ratioP2;P2;SDS_P1;SDS_P2;PMS_P1;PMS_P2;Temp;Humidity;BMP_temperature;BMP_pressure;BME280_temperature;BME280_humidity;BME280_pressure;Samples;Min_cycle;Max_cycle;Signal;HPM_P1;HPM_P2
2022/06/07 00:00:19;;;;;;;0.50;0.40;;;17.40;99.90;;;;;;5054706;28;20445;-82
2022/06/07 00:02:46;;;;;;;0.80;0.60;;;17.40;99.90;;;;;;5054549;28;20469;-82
2022/06/07 00:05:13;;;;;;;0.50;0.50;;;17.40;99.90;;;;;;5054544;28;20446;-82
2022/06/07 00:07:40;;;;;;;0.60;0.60;;;17.40;99.90;;;;;;5054469;28;20484;-81
2022/06/07 00:10:08;;;;;;;0.30;0.30;;;17.30;99.90;;;;;;5054412;28;20859;-82
2022/06/07 00:12:36;;;;;;;0.40;0.40;;;17.30;99.90;;;;;;5054384;28;20445;-82
2022/06/07 00:15:03;;;;;;;0.50;0.50;;;17.30;99.90;;;;;;5054495;28;20771;-82
2022/06/07 00:17:30;;;;;;;0.40;0.40;;;17.30;99.90;;;;;;5054354;28;20438;-82
2022/06/07 00:19:57;;;;;;;0.90;0.60;;;17.20;99.90;;;;;;5054286;28;20455;-82
2022/06/07 00:22:24;;;;;;;0.53;0.50;;;17.20;99.90;;;;;;5053914;28;20453;-82
2022/06/07 00:24:50;;;;;;;0.70;0.40;;;17.10;99.90;;;;;;5053975;28;20478;-82
2022/06/07 00:27:17;;;;;;;0.47;0.47;;;17.10;99.90;;;;;;5053985;28;20480;-81
2022/06/07 00:29:47;;;;;;;1.37;0.73;;;17.10;99.90;;;;;;5054115;28;20449;-82
2022/06/07 00:32:17;;;;;;;0.50;0.50;;;17.10;99.90;;;;;;5054490;28;20434;-82
2022/06/07 00:34:43;;;;;;;0.60;0.50;;;17.10;99.90;;;;;;5053808;28;20451;-81
2022/06/07 00:37:10;;;;;;;2.13;0.70;;;17.10;99.90;;;;;;5054344;28;20442;-82
2022/06/07 00:39:37;;;;;;;0.40;0.40;;;17.10;99.90;;;;;;5053954;28;20438;-82
2022/06/07 00:42:04;;;;;;;0.40;0.40;;;17.00;99.90;;;;;;5053675;28;20471;-82
2022/06/07 00:44:35;;;;;;;0.90;0.57;;;17.10;99.90;;;;;;5053773;28;20482;-82
2022/06/07 00:47:10;;;;;;;0.50;0.50;;;17.00;99.90;;;;;;5053521;28;20422;-82
2022/06/07 00:49:42;;;;;;;1.43;0.40;;;17.00;99.90;;;;;;5053826;28;20533;-82
2022/06/07 00:52:10;;;;;;;0.70;0.50;;;16.90;99.90;;;;;;5053452;28;20426;-82
2022/06/07 00:54:36;;;;;;;0.50;0.40;;;16.80;99.90;;;;;;5053604;28;20466;-82
2022/06/07 00:57:04;;;;;;;0.40;0.40;;;16.80;99.90;;;;;;5053393;28;20442;-82
2022/06/07 00:59:31;;;;;;;0.43;0.43;;;16.80;99.90;;;;;;5053579;28;20461;-82
2022/06/07 01:01:58;;;;;;;0.47;0.47;;;16.80;99.90;;;;;;5053352;28;20434;-82
2022/06/07 01:04:27;;;;;;;0.60;0.40;;;16.60;99.90;;;;;;5053465;28;20470;-82
2022/06/07 01:12:23;;;;;;;0.43;0.43;;;16.40;99.90;;;;;;5053512;28;20410;-82
2022/06/07 01:14:50;;;;;;;0.40;0.40;;;16.40;99.90;;;;;;5053049;28;20953;-83
2022/06/07 01:17:19;;;;;;;0.40;0.40;;;16.40;99.90;;;;;;5053088;28;20449;-83
2022/06/07 01:19:47;;;;;;;0.57;0.57;;;16.40;99.90;;;;;;5053350;28;20461;-83
2022/06/07 01:22:16;;;;;;;0.50;0.40;;;16.40;99.90;;;;;;5053036;28;20956;-83
2022/06/07 01:24:43;;;;;;;0.40;0.40;;;16.30;99.90;;;;;;5052933;28;20476;-83
2022/06/07 01:27:11;;;;;;;0.57;0.40;;;16.30;99.90;;;;;;5053251;28;20430;-83
2022/06/07 01:29:38;;;;;;;0.50;0.40;;;16.20;99.90;;;;;;5053239;28;20456;-83
2022/06/07 01:32:06;;;;;;;0.47;0.43;;;16.20;99.90;;;;;;5053195;28;20843;-83
2022/06/07 01:34:33;;;;;;;0.40;0.40;;;16.20;99.90;;;;;;5053151;28;20837;-83
2022/06/07 01:37:01;;;;;;;0.50;0.40;;;16.10;99.90;;;;;;5053222;28;20445;-83
2022/06/07 01:42:15;;;;;;;0.40;0.40;;;16.10;99.90;;;;;;5053246;28;20413;-83
2022/06/07 01:44:44;;;;;;;0.97;0.40;;;16.10;99.90;;;;;;5053022;28;20478;-83
2022/06/07 01:47:14;;;;;;;0.50;0.37;;;16.20;99.90;;;;;;5054029;28;20433;-82
2022/06/07 01:49:41;;;;;;;0.53;0.40;;;16.10;99.90;;;;;;5056815;28;20452;-83
2022/06/07 01:52:10;;;;;;;0.50;0.40;;;16.10;99.90;;;;;;5057088;28;20472;-82
2022/06/07 01:54:38;;;;;;;0.80;0.50;;;16.10;99.90;;;;;;5056982;28;20834;-82
2022/06/07 01:57:06;;;;;;;0.73;0.50;;;16.10;99.90;;;;;;5056742;28;20456;-83
2022/06/07 01:59:33;;;;;;;0.73;0.57;;;16.00;99.90;;;;;;5056989;28;20523;-83
2022/06/07 02:01:59;;;;;;;0.63;0.43;;;16.00;99.90;;;;;;5057314;28;20461;-83
2022/06/07 02:04:26;;;;;;;0.40;0.40;;;16.00;99.90;;;;;;5056536;28;20449;-83
2022/06/07 02:06:53;;;;;;;0.40;0.40;;;15.90;99.90;;;;;;5056846;28;20434;-83
2022/06/07 02:09:21;;;;;;;0.40;0.30;;;15.90;99.90;;;;;;5056434;28;21038;-83
2022/06/07 02:11:49;;;;;;;0.40;0.37;;;16.00;99.90;;;;;;5056710;28;20468;-83
2022/06/07 02:14:16;;;;;;;0.30;0.30;;;16.00;99.90;;;;;;5056375;28;20839;-83
2022/06/07 02:16:42;;;;;;;0.40;0.40;;;16.00;99.90;;;;;;5056675;28;20445;-83
2022/06/07 02:19:09;;;;;;;0.60;0.40;;;16.00;99.90;;;;;;5056302;28;20964;-83
2022/06/07 02:21:38;;;;;;;0.50;0.40;;;15.90;99.90;;;;;;5056282;28;20948;-83
2022/06/07 02:24:06;;;;;;;0.40;0.40;;;15.90;99.90;;;;;;5056411;28;20472;-82
2022/06/07 02:26:38;;;;;;;0.40;0.40;;;15.90;99.90;;;;;;5055933;28;21007;-83
2022/06/07 02:29:09;;;;;;;0.40;0.40;;;15.90;99.90;;;;;;5056376;28;20470;-83
2022/06/07 02:31:39;;;;;;;0.57;0.40;;;15.90;99.90;;;;;;5056063;28;20434;-83
2022/06/07 02:34:07;;;;;;;0.80;0.63;;;15.90;99.90;;;;;;5056114;28;20800;-82
2022/06/07 02:36:35;;;;;;;0.43;0.40;;;15.80;99.90;;;;;;5056054;28;20438;-83
2022/06/07 02:39:03;;;;;;;0.40;0.40;;;15.80;99.90;;;;;;5056239;28;20449;-83
2022/06/07 02:41:33;;;;;;;0.30;0.30;;;15.80;99.90;;;;;;5056197;28;20449;-83
2022/06/07 02:44:01;;;;;;;0.40;0.40;;;15.80;99.90;;;;;;5056127;28;20466;-83
2022/06/07 02:46:29;;;;;;;0.40;0.40;;;15.70;99.90;;;;;;5056049;28;20452;-83
2022/06/07 02:48:55;;;;;;;0.70;0.40;;;15.70;99.90;;;;;;5056007;28;20481;-83
2022/06/07 02:51:22;;;;;;;0.40;0.40;;;15.70;99.90;;;;;;5055770;28;20434;-82
2022/06/07 02:53:49;;;;;;;0.30;0.30;;;15.70;99.90;;;;;;5055605;28;20473;-83
2022/06/07 02:56:16;;;;;;;0.40;0.30;;;15.70;99.90;;;;;;5055898;28;20461;-83
2022/06/07 02:58:43;;;;;;;0.30;0.30;;;15.70;99.90;;;;;;5055136;28;20442;-82
2022/06/07 03:01:09;;;;;;;0.30;0.30;;;15.70;99.90;;;;;;5055545;28;20438;-82
2022/06/07 03:03:38;;;;;;;0.57;0.57;;;15.70;99.90;;;;;;5055644;28;20477;-83
2022/06/07 03:06:06;;;;;;;0.30;0.30;;;15.70;99.90;;;;;;5055932;28;20460;-83
2022/06/07 03:08:33;;;;;;;0.60;0.40;;;15.70;99.90;;;;;;5055565;28;20487;-82
2022/06/07 03:11:00;;;;;;;0.40;0.40;;;15.70;99.90;;;;;;5055637;28;20452;-83
2022/06/07 03:13:27;;;;;;;1.43;0.40;;;15.70;99.90;;;;;;5055457;28;20478;-83
2022/06/07 03:15:54;;;;;;;0.40;0.30;;;15.60;99.90;;;;;;5055546;28;20454;-82
2022/06/07 03:18:20;;;;;;;0.70;0.40;;;15.60;99.90;;;;;;5055255;28;20435;-82
2022/06/07 03:20:49;;;;;;;0.30;0.30;;;15.60;99.90;;;;;;5055978;28;20489;-82
2022/06/07 03:23:16;;;;;;;0.30;0.30;;;15.60;99.90;;;;;;5055162;28;20496;-83
2022/06/07 03:25:43;;;;;;;0.30;0.30;;;15.60;99.90;;;;;;5055059;28;20474;-83
2022/06/07 03:28:11;;;;;;;0.30;0.30;;;15.70;99.90;;;;;;5054983;28;20478;-83
2022/06/07 03:30:39;;;;;;;0.33;0.33;;;15.60;99.90;;;;;;5055319;28;20431;-82
2022/06/07 03:33:06;;;;;;;0.40;0.40;;;15.50;99.90;;;;;;5055092;28;20509;-83
2022/06/07 03:35:33;;;;;;;0.40;0.30;;;15.50;99.90;;;;;;5054885;28;20438;-82
2022/06/07 03:38:02;;;;;;;0.40;0.30;;;15.50;99.90;;;;;;5055101;28;20445;-83
2022/06/07 03:40:44;;;;;;;0.70;0.30;;;15.50;99.90;;;;;;5054815;28;20471;-83
2022/06/07 03:43:11;;;;;;;0.40;0.30;;;15.50;99.90;;;;;;5055052;28;20450;-83
2022/06/07 03:45:38;;;;;;;0.50;0.30;;;15.50;99.90;;;;;;5054931;28;20453;-83
2022/06/07 03:48:05;;;;;;;0.30;0.30;;;15.50;99.90;;;;;;5054826;28;20492;-83
2022/06/07 03:50:32;;;;;;;0.40;0.40;;;15.50;99.90;;;;;;5054839;28;20461;-83
2022/06/07 03:53:01;;;;;;;0.63;0.40;;;15.50;99.90;;;;;;5054767;28;20472;-83
2022/06/07 03:55:28;;;;;;;0.40;0.40;;;15.40;99.90;;;;;;5054714;28;20500;-83
2022/06/07 03:57:54;;;;;;;0.40;0.40;;;15.40;99.90;;;;;;5054453;28;20808;-83
2022/06/07 04:00:21;;;;;;;0.30;0.30;;;15.30;99.90;;;;;;5054695;28;20445;-83
2022/06/07 04:02:48;;;;;;;0.40;0.30;;;15.30;99.90;;;;;;5054534;28;20988;-82
2022/06/07 04:05:15;;;;;;;0.40;0.33;;;15.30;99.90;;;;;;5054307;28;20445;-82
2022/06/07 04:10:27;;;;;;;0.57;0.40;;;15.30;99.90;;;;;;5053470;28;20477;-83
2022/06/07 04:12:54;;;;;;;0.50;0.40;;;15.40;99.90;;;;;;5054414;28;20485;-83
2022/06/07 04:15:21;;;;;;;0.50;0.40;;;15.30;99.90;;;;;;5054416;28;20450;-83
2022/06/07 04:17:50;;;;;;;0.40;0.30;;;15.40;99.90;;;;;;5054376;28;20456;-83
2022/06/07 04:20:16;;;;;;;0.30;0.30;;;15.40;99.90;;;;;;5054258;28;20484;-82
2022/06/07 04:22:43;;;;;;;0.40;0.40;;;15.40;99.90;;;;;;5054184;28;20468;-82
2022/06/07 04:25:10;;;;;;;0.40;0.40;;;15.40;99.90;;;;;;5053700;28;20993;-82
2022/06/07 04:27:38;;;;;;;0.40;0.30;;;15.40;99.90;;;;;;5053906;28;20908;-82
2022/06/07 04:30:06;;;;;;;0.40;0.30;;;15.40;99.90;;;;;;5054060;28;20477;-82
2022/06/07 04:32:33;;;;;;;0.50;0.40;;;15.40;99.90;;;;;;5053997;28;20543;-82
2022/06/07 04:35:00;;;;;;;0.40;0.40;;;15.50;99.90;;;;;;5054004;28;20441;-82
2022/06/07 04:37:27;;;;;;;0.63;0.37;;;15.50;99.90;;;;;;5053681;28;20450;-82
2022/06/07 04:39:54;;;;;;;0.60;0.47;;;15.50;99.90;;;;;;5053960;28;20446;-82
2022/06/07 04:42:21;;;;;;;0.50;0.40;;;15.50;99.90;;;;;;5053942;28;20481;-82
2022/06/07 04:44:49;;;;;;;0.40;0.30;;;15.50;99.90;;;;;;5053792;28;20488;-82
2022/06/07 04:47:16;;;;;;;0.40;0.30;;;15.50;99.90;;;;;;5053553;28;20453;-82
2022/06/07 04:49:43;;;;;;;0.40;0.30;;;15.50;99.90;;;;;;5053740;28;20485;-82
2022/06/07 04:52:09;;;;;;;0.90;0.90;;;15.50;99.90;;;;;;5054195;28;20846;-82
2022/06/07 04:54:36;;;;;;;0.40;0.30;;;15.60;99.90;;;;;;5053577;28;20462;-82
2022/06/07 04:57:03;;;;;;;0.40;0.40;;;15.60;99.90;;;;;;5053850;28;20450;-82
2022/06/07 04:59:30;;;;;;;0.40;0.30;;;15.70;99.90;;;;;;5053293;28;20442;-82
2022/06/07 05:01:58;;;;;;;0.50;0.40;;;15.60;99.90;;;;;;5053411;28;20548;-83
2022/06/07 05:04:26;;;;;;;0.30;0.30;;;15.60;99.90;;;;;;5053442;28;20477;-83
2022/06/07 05:06:52;;;;;;;0.40;0.40;;;15.60;99.90;;;;;;5053200;28;20478;-82
2022/06/07 05:09:24;;;;;;;0.60;0.40;;;15.50;99.90;;;;;;5053050;28;20852;-82
2022/06/07 05:11:52;;;;;;;0.40;0.30;;;15.50;99.90;;;;;;5053439;28;20438;-82
2022/06/07 05:14:19;;;;;;;0.40;0.40;;;15.40;99.90;;;;;;5053312;28;20473;-82
2022/06/07 05:16:47;;;;;;;0.40;0.33;;;15.50;99.90;;;;;;5053136;28;20446;-82
2022/06/07 05:19:16;;;;;;;0.50;0.50;;;15.50;99.90;;;;;;5053333;28;20486;-82
2022/06/07 05:21:43;;;;;;;0.50;0.40;;;15.50;99.90;;;;;;5052848;28;20541;-82
2022/06/07 05:24:10;;;;;;;0.50;0.50;;;15.50;99.90;;;;;;5053218;28;20469;-82
2022/06/07 05:26:42;;;;;;;0.70;0.60;;;15.50;99.90;;;;;;5052779;28;20485;-82
2022/06/07 05:29:15;;;;;;;0.40;0.40;;;15.60;99.90;;;;;;5053205;28;20465;-82
2022/06/07 05:31:42;;;;;;;0.40;0.40;;;15.60;99.90;;;;;;5053392;28;20453;-82
2022/06/07 05:34:09;;;;;;;0.30;0.30;;;15.50;99.90;;;;;;5053110;28;20473;-82
2022/06/07 05:36:37;;;;;;;0.47;0.47;;;15.60;99.90;;;;;;5052954;28;20434;-82
2022/06/07 05:39:04;;;;;;;0.60;0.40;;;15.70;99.90;;;;;;5053401;28;20811;-82
2022/06/07 05:41:32;;;;;;;0.37;0.33;;;15.90;99.90;;;;;;5052845;28;20449;-82
2022/06/07 05:43:59;;;;;;;0.40;0.33;;;16.00;99.90;;;;;;5052736;28;20839;-82
2022/06/07 05:46:26;;;;;;;0.30;0.30;;;16.10;99.90;;;;;;5053079;28;20456;-82
2022/06/07 05:48:52;;;;;;;0.93;0.60;;;16.20;99.90;;;;;;5052701;28;21000;-82
2022/06/07 05:51:20;;;;;;;0.57;0.50;;;16.30;99.90;;;;;;5053043;28;20454;-82
2022/06/07 05:53:48;;;;;;;0.50;0.40;;;16.40;99.90;;;;;;5052936;28;20556;-82
2022/06/07 05:56:16;;;;;;;0.40;0.40;;;16.40;99.90;;;;;;5053038;28;20441;-82
2022/06/07 05:58:42;;;;;;;0.40;0.40;;;16.40;99.90;;;;;;5052984;28;20477;-82
2022/06/07 06:01:09;;;;;;;0.50;0.40;;;16.50;99.90;;;;;;5052932;28;20460;-82
2022/06/07 06:03:36;;;;;;;0.70;0.47;;;16.60;99.90;;;;;;5052677;28;20493;-82
2022/06/07 06:06:03;;;;;;;0.50;0.40;;;16.80;99.90;;;;;;5052875;28;20449;-82
2022/06/07 06:11:18;;;;;;;0.50;0.47;;;17.00;99.90;;;;;;5052905;28;20778;-82
2022/06/07 06:13:45;;;;;;;0.80;0.50;;;17.20;99.90;;;;;;5052559;28;20460;-82
2022/06/07 06:16:14;;;;;;;0.77;0.43;;;17.20;99.90;;;;;;5052737;28;20774;-82
2022/06/07 06:18:41;;;;;;;0.70;0.50;;;17.30;99.90;;;;;;5052727;28;20460;-82
2022/06/07 06:21:08;;;;;;;0.40;0.40;;;17.40;99.90;;;;;;5052759;28;20536;-82
2022/06/07 06:23:35;;;;;;;0.97;0.70;;;17.60;99.90;;;;;;5052903;28;20485;-82
2022/06/07 06:26:02;;;;;;;0.57;0.57;;;17.60;99.90;;;;;;5052272;28;20860;-82
2022/06/07 06:28:30;;;;;;;0.43;0.43;;;17.90;99.90;;;;;;5052684;28;20446;-82
2022/06/07 06:31:02;;;;;;;0.50;0.40;;;18.20;99.90;;;;;;5052341;28;20474;-82
2022/06/07 06:33:28;;;;;;;2.10;0.60;;;18.60;99.90;;;;;;5053850;28;21010;-81
2022/06/07 06:35:56;;;;;;;0.53;0.53;;;18.90;99.90;;;;;;5056019;28;20782;-82
2022/06/07 06:38:24;;;;;;;0.50;0.40;;;18.90;99.90;;;;;;5056224;28;20445;-82
2022/06/07 06:40:51;;;;;;;0.50;0.40;;;19.00;99.90;;;;;;5056200;28;20441;-84
2022/06/07 06:43:20;;;;;;;0.60;0.50;;;18.90;99.90;;;;;;5056111;28;20560;-82
2022/06/07 06:45:48;;;;;;;0.40;0.40;;;18.80;99.90;;;;;;5056357;28;20457;-82
2022/06/07 06:48:17;;;;;;;0.50;0.50;;;19.10;99.90;;;;;;5056074;28;20794;-83
2022/06/07 06:50:44;;;;;;;0.47;0.40;;;19.20;99.90;;;;;;5055999;28;20481;-83
2022/06/07 06:53:11;;;;;;;0.60;0.50;;;19.40;99.90;;;;;;5056234;28;20473;-83
2022/06/07 06:55:43;;;;;;;0.73;0.73;;;19.80;99.90;;;;;;5055973;28;20441;-83
2022/06/07 06:58:10;;;;;;;0.50;0.50;;;20.00;99.90;;;;;;5056707;28;20468;-82
2022/06/07 07:00:37;;;;;;;0.47;0.47;;;20.20;99.90;;;;;;5055822;28;20452;-83
2022/06/07 07:03:05;;;;;;;0.53;0.53;;;20.40;99.90;;;;;;5055730;28;20476;-83
2022/06/07 07:05:35;;;;;;;2.20;0.70;;;20.60;99.90;;;;;;5055747;28;20429;-83
2022/06/07 07:08:02;;;;;;;0.50;0.50;;;20.60;99.90;;;;;;5055951;28;20532;-82
2022/06/07 07:10:29;;;;;;;0.50;0.50;;;20.70;99.90;;;;;;5055544;28;20815;-83
2022/06/07 07:12:55;;;;;;;0.50;0.40;;;20.70;99.90;;;;;;5055233;28;21004;-82
2022/06/07 07:15:22;;;;;;;0.60;0.60;;;20.30;99.90;;;;;;5055337;28;20414;-82
2022/06/07 07:17:50;;;;;;;0.40;0.40;;;20.30;99.90;;;;;;5055206;28;20437;-82
2022/06/07 07:20:18;;;;;;;0.40;0.40;;;20.40;99.90;;;;;;5055496;28;20444;-82
2022/06/07 07:22:45;;;;;;;0.40;0.40;;;20.50;99.90;;;;;;5055352;28;20452;-82
2022/06/07 07:25:12;;;;;;;0.70;0.50;;;20.70;99.90;;;;;;5054842;28;20849;-82
2022/06/07 07:27:38;;;;;;;0.40;0.40;;;20.90;99.90;;;;;;5055059;28;20433;-83
2022/06/07 07:30:07;;;;;;;0.50;0.50;;;21.20;99.90;;;;;;5054871;28;21019;-82
2022/06/07 07:32:34;;;;;;;0.50;0.43;;;21.00;99.90;;;;;;5054873;28;20460;-82
2022/06/07 07:35:01;;;;;;;0.37;0.30;;;21.20;99.90;;;;;;5055216;28;20437;-82
2022/06/07 07:37:29;;;;;;;0.70;0.40;;;21.40;99.90;;;;;;5054936;28;20218;-82
2022/06/07 07:39:56;;;;;;;0.50;0.40;;;21.40;99.90;;;;;;5055137;28;20441;-82
2022/06/07 07:42:23;;;;;;;0.50;0.50;;;21.30;99.90;;;;;;5055048;28;20448;-82
2022/06/07 07:44:50;;;;;;;0.57;0.57;;;21.00;99.90;;;;;;5054698;28;20211;-82
2022/06/07 07:47:16;;;;;;;0.70;0.50;;;20.80;99.90;;;;;;5054885;28;20441;-82
2022/06/07 07:49:43;;;;;;;0.40;0.40;;;20.70;99.90;;;;;;5054807;28;20508;-82
2022/06/07 07:52:10;;;;;;;0.70;0.40;;;20.90;99.90;;;;;;5054573;28;20436;-82
2022/06/07 07:54:39;;;;;;;0.40;0.37;;;21.70;99.90;;;;;;5054674;28;20261;-82
2022/06/07 07:57:06;;;;;;;0.52;0.50;;;22.60;99.90;;;;;;5054423;28;20690;-83
2022/06/07 07:59:33;;;;;;;0.50;0.50;;;23.30;99.90;;;;;;5054702;28;20203;-83
2022/06/07 08:02:00;;;;;;;2.70;0.60;;;23.50;99.90;;;;;;5054671;28;20214;-83
2022/06/07 08:04:26;;;;;;;0.50;0.50;;;23.60;99.90;;;;;;5054560;28;20223;-83
2022/06/07 08:06:53;;;;;;;0.50;0.50;;;23.30;99.90;;;;;;5054587;28;20202;-83
2022/06/07 08:09:22;;;;;;;0.50;0.50;;;22.80;99.90;;;;;;5054394;28;20210;-83
2022/06/07 08:11:50;;;;;;;0.53;0.40;;;22.30;99.90;;;;;;5054415;28;20202;-83
2022/06/07 08:14:19;;;;;;;0.50;0.50;;;21.50;99.90;;;;;;5054366;28;20583;-83
2022/06/07 08:16:47;;;;;;;0.60;0.60;;;21.20;99.90;;;;;;5054038;28;20574;-82
2022/06/07 08:19:14;;;;;;;0.40;0.37;;;20.70;99.90;;;;;;5054303;28;20213;-83
2022/06/07 08:21:41;;;;;;;0.53;0.50;;;20.50;99.90;;;;;;5054773;28;20210;-83
2022/06/07 08:24:08;;;;;;;0.30;0.30;;;20.30;99.90;;;;;;5054135;28;20515;-83
2022/06/07 08:26:35;;;;;;;0.50;0.40;;;20.20;99.90;;;;;;5053780;28;20473;-83
2022/06/07 08:29:04;;;;;;;0.50;0.40;;;20.00;99.90;;;;;;5053920;28;20441;-83
2022/06/07 08:31:33;;;;;;;0.53;0.47;;;20.20;99.90;;;;;;5054023;28;20580;-82
2022/06/07 08:39:31;;;;;;;0.60;0.40;;;21.90;99.90;;;;;;5053958;28;20178;-82
2022/06/07 08:42:01;;;;;;;0.45;0.43;;;22.10;99.90;;;;;;5053928;28;20198;-82
2022/06/07 08:44:34;;;;;;;1.20;0.40;;;22.20;99.90;;;;;;5053846;28;20222;-82
2022/06/07 08:47:03;;;;;;;1.38;0.40;;;22.80;99.90;;;;;;5053614;28;20661;-82
2022/06/07 08:49:30;;;;;;;0.47;0.47;;;23.20;99.90;;;;;;5053699;28;20199;-83
2022/06/07 08:52:02;;;;;;;0.35;0.35;;;24.10;99.90;;;;;;5053518;28;20222;-83
2022/06/07 08:54:35;;;;;;;0.40;0.40;;;24.90;99.90;;;;;;5053376;28;20710;-83
2022/06/07 08:57:10;;;;;;;0.65;0.47;;;24.80;99.50;;;;;;5053328;28;20187;-83
2022/06/07 08:59:38;;;;;;;0.90;0.43;;;25.30;99.90;;;;;;5053634;28;20554;-83
2022/06/07 09:02:16;;;;;;;0.40;0.40;;;25.50;98.20;;;;;;5053366;28;20556;-82
2022/06/07 09:04:43;;;;;;;0.77;0.73;;;25.90;97.70;;;;;;5053289;28;20214;-82
2022/06/07 09:07:15;;;;;;;1.95;0.40;;;26.30;96.70;;;;;;5053586;28;20522;-83
2022/06/07 09:12:33;;;;;;;0.40;0.40;;;25.90;95.00;;;;;;5053472;28;20260;-83
2022/06/07 09:15:09;;;;;;;0.40;0.40;;;25.20;94.90;;;;;;5053454;28;20187;-82
2022/06/07 09:17:38;;;;;;;0.50;0.40;;;24.30;93.50;;;;;;5053442;28;20277;-82
2022/06/07 09:20:08;;;;;;;0.98;0.50;;;23.60;94.80;;;;;;5053368;28;20202;-83
2022/06/07 09:22:43;;;;;;;0.50;0.47;;;23.00;96.70;;;;;;5053002;28;20681;-83
2022/06/07 09:25:17;;;;;;;0.60;0.40;;;22.50;98.00;;;;;;5052790;28;20230;-83
2022/06/07 09:27:46;;;;;;;0.50;0.47;;;22.20;99.80;;;;;;5053274;28;20198;-82
2022/06/07 09:30:24;;;;;;;0.50;0.50;;;22.00;99.80;;;;;;5053289;28;20218;-82
2022/06/07 09:32:51;;;;;;;0.40;0.40;;;21.90;98.60;;;;;;5053283;28;20219;-82
2022/06/07 09:35:21;;;;;;;0.40;0.37;;;22.10;98.40;;;;;;5053298;28;20236;-82
2022/06/07 09:37:51;;;;;;;0.63;0.40;;;22.20;98.20;;;;;;5053196;28;20276;-82
2022/06/07 09:40:28;;;;;;;0.60;0.40;;;22.20;98.30;;;;;;5052907;28;20198;-82
2022/06/07 09:43:01;;;;;;;0.40;0.40;;;22.00;98.00;;;;;;5053106;28;20233;-82
2022/06/07 09:45:34;;;;;;;0.30;0.30;;;21.90;99.30;;;;;;5052827;28;20643;-82
2022/06/07 09:48:20;;;;;;;0.40;0.30;;;21.70;99.10;;;;;;5052868;28;20195;-82
2022/06/07 09:50:55;;;;;;;0.40;0.40;;;21.80;99.90;;;;;;5052780;28;20207;-82
2022/06/07 09:53:23;;;;;;;0.40;0.30;;;22.00;99.10;;;;;;5053047;28;20476;-82
2022/06/07 09:56:05;;;;;;;1.57;0.40;;;22.10;99.60;;;;;;5053006;28;20600;-82
2022/06/07 09:58:52;;;;;;;0.40;0.40;;;22.10;99.20;;;;;;5053256;28;20487;-83
2022/06/07 10:01:26;;;;;;;0.50;0.43;;;22.00;99.50;;;;;;5053036;28;20190;-81
2022/06/07 10:03:59;;;;;;;0.80;0.50;;;21.80;99.70;;;;;;5052780;28;20453;-82
2022/06/07 10:06:30;;;;;;;0.40;0.40;;;21.70;99.90;;;;;;5052934;28;20433;-82
2022/06/07 10:09:13;;;;;;;0.50;0.47;;;21.50;99.90;;;;;;5055388;28;20428;-82
2022/06/07 10:11:47;;;;;;;0.50;0.43;;;21.50;99.90;;;;;;5056455;28;20457;-82
2022/06/07 10:14:24;;;;;;;0.40;0.40;;;21.40;99.90;;;;;;5056717;28;20469;-82
2022/06/07 10:17:06;;;;;;;0.50;0.50;;;21.30;99.90;;;;;;5056742;28;20437;-82
2022/06/07 10:19:44;;;;;;;1.63;0.50;;;21.10;99.90;;;;;;5056645;28;20435;-82
2022/06/07 10:22:23;;;;;;;0.47;0.47;;;21.00;99.90;;;;;;5056603;28;20445;-81
2022/06/07 10:24:57;;;;;;;0.57;0.50;;;20.90;99.90;;;;;;5056243;28;20468;-82
2022/06/07 10:27:33;;;;;;;0.57;0.57;;;21.10;99.90;;;;;;5056525;28;20429;-82
2022/06/07 10:30:12;;;;;;;0.40;0.40;;;21.40;99.90;;;;;;5056578;28;20445;-81
2022/06/07 10:32:57;;;;;;;0.50;0.40;;;21.70;99.90;;;;;;5056220;28;20418;-82
2022/06/07 10:35:31;;;;;;;1.27;0.60;;;22.00;99.90;;;;;;5056423;28;20437;-82
2022/06/07 10:38:13;;;;;;;0.40;0.40;;;21.80;99.90;;;;;;5056671;28;20892;-82
2022/06/07 10:40:58;;;;;;;0.50;0.37;;;21.80;99.90;;;;;;5056295;28;20430;-82
2022/06/07 10:43:30;;;;;;;1.23;0.67;;;21.80;99.90;;;;;;5055912;28;20454;-82
2022/06/07 10:46:00;;;;;;;0.40;0.33;;;21.60;99.90;;;;;;5056491;28;20414;-82
2022/06/07 10:48:34;;;;;;;0.57;0.50;;;21.40;99.90;;;;;;5056098;28;20459;-82
2022/06/07 10:52:20;;;;;;;0.57;0.57;;;21.20;99.90;;;;;;5056069;28;20456;-82
2022/06/07 10:53:56;;;;;;;0.40;0.30;;;21.20;99.90;;;;;;5055461;28;20972;-82
2022/06/07 10:56:27;;;;;;;0.50;0.37;;;21.20;99.90;;;;;;5055968;28;20452;-82
2022/06/07 10:58:55;;;;;;;0.40;0.40;;;21.20;99.90;;;;;;5055934;28;20437;-82
2022/06/07 11:01:27;;;;;;;0.40;0.30;;;21.40;99.90;;;;;;5055852;28;20444;-82
2022/06/07 11:04:07;;;;;;;0.40;0.40;;;21.50;99.90;;;;;;5055766;28;20469;-82
2022/06/07 11:09:32;;;;;;;0.50;0.50;;;21.90;99.90;;;;;;5055631;28;20451;-82
2022/06/07 11:12:03;;;;;;;0.50;0.40;;;21.80;99.90;;;;;;5055670;28;20460;-83
2022/06/07 11:14:38;;;;;;;0.50;0.40;;;21.70;99.90;;;;;;5056222;28;20484;-83
2022/06/07 11:17:16;;;;;;;0.67;0.50;;;21.70;99.90;;;;;;5055731;28;20445;-83
2022/06/07 11:19:45;;;;;;;0.50;0.50;;;21.60;99.90;;;;;;5054896;28;20793;-82
2022/06/07 11:22:17;;;;;;;1.07;0.40;;;21.30;99.90;;;;;;5055550;28;20429;-82
2022/06/07 11:24:59;;;;;;;0.43;0.43;;;21.10;99.90;;;;;;5055108;28;21038;-82
2022/06/07 11:27:28;;;;;;;0.40;0.40;;;21.10;99.90;;;;;;5056041;28;20565;-82
2022/06/07 11:30:24;;;;;;;0.40;0.40;;;21.10;99.90;;;;;;5055629;28;20448;-82
2022/06/07 11:32:55;;;;;;;0.60;0.40;;;21.00;99.90;;;;;;5055200;28;20831;-82
2022/06/07 11:35:58;;;;;;;0.50;0.50;;;21.00;99.90;;;;;;5054967;28;20789;-85
2022/06/07 11:38:29;;;;;;;0.50;0.43;;;20.90;99.90;;;;;;5034319;28;20449;-84
2022/06/07 11:44:00;;;;;;;0.40;0.40;;;20.70;99.90;;;;;;5054769;28;20930;-82
2022/06/07 11:46:38;;;;;;;0.40;0.40;;;20.90;99.90;;;;;;5055046;28;20445;-81
2022/06/07 11:49:31;;;;;;;0.40;0.40;;;21.10;99.90;;;;;;5054762;28;20413;-82
2022/06/07 11:52:01;;;;;;;0.40;0.40;;;21.40;99.90;;;;;;5054632;28;20484;-82
2022/06/07 11:54:31;;;;;;;0.40;0.40;;;21.60;99.90;;;;;;5054871;28;20458;-82
2022/06/07 11:57:01;;;;;;;0.40;0.40;;;21.70;99.90;;;;;;5054553;28;20932;-82
2022/06/07 11:59:34;;;;;;;0.80;0.40;;;21.70;99.90;;;;;;5059897;28;20504;-86
2022/06/07 12:02:30;;;;;;;0.30;0.30;;;21.70;99.90;;;;;;5055582;28;20449;-85
2022/06/07 12:05:11;;;;;;;0.40;0.40;;;21.70;99.90;;;;;;5054972;28;20430;-86
2022/06/07 12:07:46;;;;;;;0.50;0.40;;;21.80;99.90;;;;;;5055082;28;20771;-86
2022/06/07 12:10:28;;;;;;;0.40;0.40;;;22.00;99.90;;;;;;5054853;28;20424;-86
2022/06/07 12:12:57;;;;;;;0.47;0.47;;;22.10;99.90;;;;;;5054682;28;20461;-86
2022/06/07 12:15:27;;;;;;;0.40;0.30;;;22.20;99.90;;;;;;5054700;28;20453;-86
2022/06/07 12:17:57;;;;;;;0.50;0.30;;;22.40;99.90;;;;;;5054697;28;20449;-85
2022/06/07 12:20:27;;;;;;;0.40;0.30;;;22.50;99.90;;;;;;5054993;28;20203;-86
2022/06/07 12:22:57;;;;;;;0.40;0.30;;;22.50;99.90;;;;;;5054285;28;20726;-86
2022/06/07 12:25:26;;;;;;;0.40;0.40;;;22.50;99.90;;;;;;5054080;28;20234;-86
2022/06/07 12:27:55;;;;;;;0.40;0.40;;;22.50;99.90;;;;;;5054711;28;20210;-85
2022/06/07 12:30:27;;;;;;;0.40;0.40;;;22.40;99.90;;;;;;5053514;28;20214;-86
2022/06/07 12:32:54;;;;;;;0.40;0.30;;;22.30;99.90;;;;;;5054522;28;20265;-86
2022/06/07 12:35:25;;;;;;;1.13;0.40;;;22.30;99.90;;;;;;5054084;28;20959;-86
2022/06/07 12:37:55;;;;;;;0.50;0.47;;;22.30;99.90;;;;;;5054412;28;20541;-86
2022/06/07 12:40:52;;;;;;;0.40;0.40;;;22.40;99.90;;;;;;5054028;28;20655;-86
2022/06/07 12:43:25;;;;;;;0.60;0.50;;;22.40;99.90;;;;;;5050200;28;20219;-86
2022/06/07 12:46:03;;;;;;;0.40;0.40;;;22.50;99.90;;;;;;5054217;28;20237;-86
2022/06/07 12:48:38;;;;;;;0.50;0.50;;;22.60;99.90;;;;;;5053920;28;20211;-86
2022/06/07 12:51:23;;;;;;;0.40;0.33;;;22.70;99.90;;;;;;5053711;28;20207;-86
2022/06/07 12:53:57;;;;;;;0.50;0.50;;;22.80;99.90;;;;;;5053935;28;20219;-86
2022/06/07 12:56:28;;;;;;;0.50;0.50;;;22.80;99.90;;;;;;5054075;28;20186;-86
2022/06/07 12:58:57;;;;;;;0.40;0.30;;;22.80;99.90;;;;;;5054039;28;20546;-85
2022/06/07 13:01:27;;;;;;;0.40;0.40;;;22.90;98.90;;;;;;5053909;28;20190;-86
2022/06/07 13:03:57;;;;;;;0.50;0.40;;;23.00;98.80;;;;;;5053852;28;20227;-86
2022/06/07 13:06:24;;;;;;;0.40;0.37;;;22.90;99.50;;;;;;5053906;28;20202;-86
2022/06/07 13:09:01;;;;;;;0.40;0.30;;;22.70;99.70;;;;;;5053753;28;20199;-86
2022/06/07 13:11:31;;;;;;;0.40;0.40;;;22.70;99.40;;;;;;5053843;28;20206;-86
2022/06/07 13:14:00;;;;;;;0.40;0.33;;;22.70;98.50;;;;;;5053655;28;20223;-85
2022/06/07 13:16:42;;;;;;;0.40;0.40;;;22.70;98.30;;;;;;5053477;28;20217;-86
2022/06/07 13:19:28;;;;;;;0.50;0.40;;;22.60;98.40;;;;;;5053708;28;20190;-86
2022/06/07 13:22:01;;;;;;;0.40;0.40;;;22.50;99.20;;;;;;5053423;28;20202;-86
2022/06/07 13:24:40;;;;;;;0.40;0.40;;;22.30;99.90;;;;;;5053462;28;20693;-86
2022/06/07 13:27:51;;;;;;;0.40;0.40;;;22.20;99.90;;;;;;5054421;28;20433;-86
2022/06/07 13:30:27;;;;;;;0.40;0.40;;;22.20;99.90;;;;;;5051177;28;20241;-86